createdAt,value
2022-10-31T00:01:54.174Z,2.20
2022-10-31T00:04:21.131Z,2.00
2022-10-31T00:06:54.382Z,1.80
2022-10-31T00:12:15.568Z,2.13
2022-10-31T00:14:45.878Z,2.00
2022-10-31T00:17:12.534Z,2.30
2022-10-31T00:19:39.112Z,2.47
2022-10-31T00:22:05.699Z,2.40
2022-10-31T00:24:39.832Z,1.87
2022-10-31T00:27:06.429Z,1.97
2022-10-31T00:29:43.473Z,2.00
2022-10-31T00:32:10.055Z,2.30
2022-10-31T00:37:26.886Z,2.00
2022-10-31T00:39:53.512Z,1.90
2022-10-31T00:42:20.102Z,2.03
2022-10-31T00:44:46.788Z,2.00
2022-10-31T00:47:22.642Z,2.00
2022-10-31T00:52:30.495Z,2.27
2022-10-31T00:54:57.973Z,1.93
2022-10-31T00:57:33.642Z,2.43
2022-10-31T01:00:04.003Z,1.90
2022-10-31T01:02:32.961Z,2.40
2022-10-31T01:05:09.956Z,2.10
2022-10-31T01:07:41.545Z,2.17
2022-10-31T01:10:14.648Z,2.30
2022-10-31T01:12:49.642Z,1.70
2022-10-31T01:15:21.077Z,2.10
2022-10-31T01:17:58.464Z,2.10
2022-10-31T01:23:15.498Z,2.37
2022-10-31T01:25:51.939Z,2.37
2022-10-31T01:28:23.162Z,2.13
2022-10-31T01:30:59.176Z,2.30
2022-10-31T01:33:25.763Z,2.20
2022-10-31T01:35:57.446Z,2.47
2022-10-31T01:38:26.569Z,2.37
2022-10-31T01:40:53.580Z,2.13
2022-10-31T01:43:24.259Z,2.17
2022-10-31T01:45:55.198Z,2.33
2022-10-31T01:48:32.996Z,2.57
2022-10-31T01:51:00.965Z,2.37
2022-10-31T01:53:27.598Z,2.13
2022-10-31T01:56:02.525Z,2.60
2022-10-31T01:58:43.945Z,2.67
2022-10-31T02:01:10.939Z,2.50
2022-10-31T02:03:45.692Z,2.90
2022-10-31T02:06:36.145Z,2.40
2022-10-31T02:09:14.801Z,2.37
2022-10-31T02:11:51.143Z,2.57
2022-10-31T02:14:18.058Z,2.47
2022-10-31T02:16:52.196Z,2.30
2022-10-31T02:19:36.884Z,2.60
2022-10-31T02:22:25.493Z,2.10
2022-10-31T02:25:25.753Z,2.60
2022-10-31T02:28:29.888Z,2.30
2022-10-31T02:31:23.825Z,2.73
2022-10-31T02:34:13.490Z,2.93
2022-10-31T02:37:04.963Z,2.57
2022-10-31T02:39:50.219Z,2.73
2022-10-31T02:42:46.449Z,2.30
2022-10-31T02:45:25.565Z,2.57
2022-10-31T02:47:58.492Z,2.97
2022-10-31T02:50:40.695Z,3.70
2022-10-31T02:53:07.425Z,2.87
2022-10-31T02:55:34.357Z,3.50
2022-10-31T03:01:19.557Z,3.13
2022-10-31T03:04:18.603Z,2.97
2022-10-31T03:09:53.829Z,2.53
2022-10-31T03:12:43.198Z,3.20
2022-10-31T03:15:29.411Z,2.60
2022-10-31T03:18:07.862Z,2.90
2022-10-31T03:21:13.283Z,2.93
2022-10-31T03:23:49.432Z,2.97
2022-10-31T03:26:23.537Z,2.83
2022-10-31T03:29:10.925Z,3.00
2022-10-31T03:31:54.556Z,3.20
2022-10-31T03:34:29.436Z,2.87
2022-10-31T03:37:03.187Z,2.93
2022-10-31T03:39:34.819Z,2.90
2022-10-31T03:42:12.460Z,3.23
2022-10-31T03:44:47.226Z,2.30
2022-10-31T03:47:18.106Z,2.90
2022-10-31T03:49:49.616Z,3.23
2022-10-31T03:55:44.668Z,3.60
2022-10-31T03:58:24.523Z,3.30
2022-10-31T04:01:06.498Z,3.40
2022-10-31T04:03:48.237Z,3.50
2022-10-31T04:06:23.883Z,3.37
2022-10-31T04:08:57.243Z,3.33
2022-10-31T04:11:34.702Z,3.80
2022-10-31T04:14:09.171Z,3.43
2022-10-31T04:16:36.994Z,3.30
2022-10-31T04:19:07.843Z,3.00
2022-10-31T04:21:46.123Z,2.97
2022-10-31T04:24:12.755Z,2.90
2022-10-31T04:26:45.333Z,3.23
2022-10-31T04:29:15.496Z,2.90
2022-10-31T04:31:42.146Z,3.10
2022-10-31T04:34:14.356Z,3.40
2022-10-31T04:36:54.022Z,3.13
2022-10-31T04:39:24.229Z,3.30
2022-10-31T04:41:54.662Z,3.10
2022-10-31T04:44:29.576Z,3.13
2022-10-31T04:47:03.187Z,3.33
2022-10-31T04:49:29.834Z,3.43
2022-10-31T04:51:56.602Z,2.97
2022-10-31T04:54:27.204Z,2.77
2022-10-31T04:56:53.857Z,3.80
2022-10-31T05:02:18.546Z,3.37
2022-10-31T05:04:45.224Z,3.77
2022-10-31T05:07:17.933Z,4.33
2022-10-31T05:09:52.559Z,10.73
2022-10-31T05:12:25.109Z,3.93
2022-10-31T05:14:55.987Z,4.77
2022-10-31T05:17:27.668Z,4.87
2022-10-31T05:19:57.861Z,4.83
2022-10-31T05:22:30.071Z,4.23
2022-10-31T05:25:02.151Z,4.87
2022-10-31T05:27:36.706Z,5.23
2022-10-31T05:30:06.028Z,4.47
2022-10-31T05:32:43.534Z,5.00
2022-10-31T05:37:56.375Z,4.70
2022-10-31T05:40:23.144Z,5.30
2022-10-31T05:43:02.744Z,4.87
2022-10-31T05:48:09.960Z,6.40
2022-10-31T05:50:43.532Z,6.10
2022-10-31T05:53:14.808Z,6.73
2022-10-31T05:58:31.223Z,6.50
2022-10-31T06:00:58.541Z,7.33
2022-10-31T06:03:26.916Z,7.13
2022-10-31T06:06:03.686Z,6.83
2022-10-31T06:08:37.239Z,6.77
2022-10-31T06:11:09.902Z,7.00
2022-10-31T06:13:36.658Z,7.00
2022-10-31T06:16:03.430Z,7.77
2022-10-31T06:18:30.830Z,7.40
2022-10-31T06:21:01.661Z,7.50
2022-10-31T06:23:28.502Z,8.20
2022-10-31T06:26:00.514Z,8.43
2022-10-31T06:28:37.677Z,8.97
2022-10-31T06:31:04.350Z,7.00
2022-10-31T06:33:38.714Z,8.60
2022-10-31T06:36:21.194Z,8.03
2022-10-31T06:39:02.211Z,10.77
2022-10-31T06:41:43.346Z,8.63
2022-10-31T06:44:21.136Z,7.73
2022-10-31T06:46:56.239Z,8.57
2022-10-31T06:49:31.779Z,9.57
2022-10-31T06:52:00.772Z,8.43
2022-10-31T06:54:35.267Z,8.73
2022-10-31T06:57:01.923Z,9.30
2022-10-31T06:59:31.522Z,8.80
2022-10-31T07:02:12.098Z,8.93
2022-10-31T07:04:42.180Z,8.97
2022-10-31T07:07:08.880Z,9.07
2022-10-31T07:12:21.925Z,9.93
2022-10-31T07:14:52.018Z,9.10
2022-10-31T07:17:19.948Z,8.33
2022-10-31T07:19:46.587Z,9.10
2022-10-31T07:22:19.953Z,8.90
2022-10-31T07:24:46.528Z,9.00
2022-10-31T07:27:13.145Z,8.83
2022-10-31T07:29:42.054Z,9.87
2022-10-31T07:32:08.717Z,9.80
2022-10-31T07:34:46.632Z,8.83
2022-10-31T07:37:20.376Z,9.37
2022-10-31T07:39:56.183Z,8.13
2022-10-31T07:42:34.192Z,9.20
2022-10-31T07:45:04.516Z,9.13
2022-10-31T07:47:31.170Z,9.23
2022-10-31T07:49:57.815Z,10.07
2022-10-31T07:52:26.453Z,10.67
2022-10-31T07:54:53.645Z,10.03
2022-10-31T07:57:24.103Z,9.23
2022-10-31T07:59:59.303Z,10.30
2022-10-31T08:02:32.339Z,9.67
2022-10-31T08:05:03.966Z,9.57
2022-10-31T08:07:41.059Z,9.93
2022-10-31T08:10:07.942Z,7.97
2022-10-31T08:12:42.652Z,7.50
2022-10-31T08:15:09.794Z,7.93
2022-10-31T08:17:39.246Z,8.13
2022-10-31T08:20:06.923Z,8.17
2022-10-31T08:22:33.567Z,7.70
2022-10-31T08:25:04.507Z,7.80
2022-10-31T08:27:32.655Z,8.40
2022-10-31T08:29:59.596Z,7.57
2022-10-31T08:32:30.575Z,7.47
2022-10-31T08:34:57.645Z,7.57
2022-10-31T08:37:24.568Z,7.60
2022-10-31T08:40:02.231Z,7.33
2022-10-31T08:42:35.336Z,6.47
2022-10-31T08:45:12.395Z,6.70
2022-10-31T08:47:39.026Z,6.80
2022-10-31T08:50:05.977Z,7.43
2022-10-31T08:55:25.697Z,6.97
2022-10-31T08:58:05.406Z,6.10
2022-10-31T09:00:40.209Z,6.90
2022-10-31T09:06:01.012Z,6.33
2022-10-31T09:08:29.749Z,6.43
2022-10-31T09:11:01.300Z,7.20
2022-10-31T09:16:15.666Z,6.50
2022-10-31T09:18:47.634Z,6.70
2022-10-31T09:24:05.348Z,6.33
2022-10-31T09:26:35.202Z,5.97
2022-10-31T09:29:03.062Z,6.37
2022-10-31T09:31:30.164Z,5.93
2022-10-31T09:34:04.800Z,5.37
2022-10-31T09:36:39.182Z,6.17
2022-10-31T09:39:11.531Z,5.40
2022-10-31T09:42:02.435Z,6.60
2022-10-31T09:44:52.793Z,5.70
2022-10-31T09:47:31.574Z,6.17
2022-10-31T09:50:32.191Z,4.67
2022-10-31T09:53:08.796Z,4.80
2022-10-31T09:55:46.728Z,5.17
2022-10-31T10:01:14.702Z,5.13
2022-10-31T10:06:45.677Z,5.57
2022-10-31T10:09:27.418Z,4.47
2022-10-31T10:12:02.887Z,4.80
2022-10-31T10:15:04.125Z,4.13
2022-10-31T10:17:44.384Z,4.57
2022-10-31T10:20:28.528Z,3.90
2022-10-31T10:23:24.892Z,3.70
2022-10-31T10:26:34.776Z,3.20
2022-10-31T10:29:26.750Z,2.50
2022-10-31T10:32:04.227Z,3.10
2022-10-31T10:34:49.622Z,2.93
2022-10-31T10:37:33.521Z,3.00
2022-10-31T10:40:13.224Z,2.90
2022-10-31T10:43:00.708Z,2.87
2022-10-31T10:45:51.642Z,3.00
2022-10-31T10:48:43.378Z,2.70
2022-10-31T10:56:58.084Z,2.60
2022-10-31T10:59:35.278Z,2.93
2022-10-31T11:02:14.292Z,3.40
2022-10-31T11:04:45.960Z,2.00
2022-10-31T11:07:13.463Z,2.10
2022-10-31T11:09:48.449Z,2.00
2022-10-31T11:15:36.293Z,2.00
2022-10-31T11:18:09.305Z,2.17
2022-10-31T11:20:41.219Z,1.77
2022-10-31T11:23:22.661Z,2.33
2022-10-31T11:26:03.893Z,2.73
2022-10-31T11:28:43.904Z,2.33
2022-10-31T11:31:24.510Z,2.30
2022-10-31T11:34:01.259Z,2.43
2022-10-31T11:36:31.316Z,2.57
2022-10-31T11:39:00.809Z,2.60
2022-10-31T11:44:14.659Z,2.63
2022-10-31T11:46:51.591Z,2.50
2022-10-31T11:49:20.154Z,2.93
2022-10-31T11:52:01.820Z,2.67
2022-10-31T11:54:38.485Z,2.20
2022-10-31T11:57:15.692Z,2.37
2022-10-31T12:00:00.883Z,2.47
2022-10-31T12:02:28.960Z,2.27
2022-10-31T12:05:32.197Z,2.50
2022-10-31T12:08:08.723Z,2.27
2022-10-31T12:10:59.376Z,3.57
2022-10-31T12:16:45.016Z,2.50
2022-10-31T12:19:31.028Z,2.53
2022-10-31T12:22:01.655Z,2.63
2022-10-31T12:27:36.498Z,2.50
2022-10-31T12:30:18.460Z,2.90
2022-10-31T12:32:57.388Z,2.60
2022-10-31T12:35:47.192Z,2.87
2022-10-31T12:38:31.390Z,2.50
2022-10-31T12:41:23.723Z,2.87
2022-10-31T12:44:29.986Z,2.63
2022-10-31T12:47:36.822Z,3.40
2022-10-31T12:50:24.767Z,2.73
2022-10-31T12:53:15.115Z,3.10
2022-10-31T12:55:53.836Z,3.30
2022-10-31T12:58:36.441Z,2.80
2022-10-31T13:01:14.141Z,3.13
2022-10-31T13:03:58.314Z,2.80
2022-10-31T13:07:06.459Z,3.53
2022-10-31T13:09:52.171Z,2.70
2022-10-31T13:12:30.029Z,3.07
2022-10-31T13:15:12.143Z,3.17
2022-10-31T13:17:51.749Z,3.37
2022-10-31T13:20:33.998Z,3.03
2022-10-31T13:23:55.528Z,3.93
2022-10-31T13:26:48.194Z,3.23
2022-10-31T13:29:42.985Z,3.57
2022-10-31T13:32:15.342Z,3.17
2022-10-31T13:34:48.045Z,3.50
2022-10-31T13:37:38.199Z,2.47
2022-10-31T13:40:17.202Z,2.50
2022-10-31T13:43:07.105Z,2.93
2022-10-31T13:45:42.193Z,3.00
2022-10-31T13:48:31.407Z,3.07
2022-10-31T13:51:09.982Z,2.73
2022-10-31T13:54:16.883Z,2.63
2022-10-31T13:56:47.892Z,2.60
2022-10-31T13:59:35.160Z,2.83
2022-10-31T14:02:15.672Z,2.97
2022-10-31T14:04:57.201Z,2.87
2022-10-31T14:07:32.447Z,2.70
2022-10-31T14:10:27.456Z,2.97
2022-10-31T14:13:04.754Z,2.97
2022-10-31T14:18:31.095Z,2.73
2022-10-31T14:21:10.190Z,2.97
2022-10-31T14:23:40.141Z,2.63
2022-10-31T14:26:28.206Z,3.23
2022-10-31T14:29:00.513Z,3.40
2022-10-31T14:31:45.096Z,4.37
2022-10-31T14:34:41.110Z,6.23
2022-10-31T14:40:28.999Z,4.03
2022-10-31T14:43:23.027Z,3.37
2022-10-31T14:46:35.656Z,3.13
2022-10-31T14:49:22.251Z,3.87
2022-10-31T14:52:00.975Z,3.83
2022-10-31T14:54:35.126Z,4.17
2022-10-31T14:57:20.251Z,3.60
2022-10-31T15:00:00.864Z,2.93
2022-10-31T15:02:55.839Z,3.47
2022-10-31T15:05:28.796Z,5.77
2022-10-31T15:08:03.062Z,5.47
2022-10-31T15:10:34.094Z,15.77
2022-10-31T15:13:37.958Z,42.67
2022-10-31T15:16:20.770Z,44.43
2022-10-31T15:19:15.858Z,53.53
2022-10-31T15:21:51.625Z,67.80
2022-10-31T15:24:29.648Z,190.23
2022-10-31T15:27:02.320Z,286.87
2022-10-31T15:29:37.806Z,274.33
2022-10-31T15:32:35.362Z,284.70
2022-10-31T15:35:05.316Z,284.30
2022-10-31T15:37:36.100Z,246.77
2022-10-31T15:40:17.290Z,231.33
2022-10-31T15:42:47.428Z,216.40
2022-10-31T15:45:18.150Z,198.87
2022-10-31T15:48:04.543Z,82.70
2022-10-31T15:50:39.820Z,35.90
2022-10-31T15:53:26.220Z,24.03
2022-10-31T15:56:01.412Z,36.67
2022-10-31T15:58:54.182Z,14.03
2022-10-31T16:01:39.815Z,26.90
2022-10-31T16:04:15.420Z,15.97
2022-10-31T16:06:45.069Z,16.93
2022-10-31T16:09:33.006Z,12.30
2022-10-31T16:12:05.364Z,5.17
2022-10-31T16:14:46.523Z,4.70
2022-10-31T16:17:22.159Z,5.30
2022-10-31T16:20:00.092Z,3.97
2022-10-31T16:22:34.732Z,3.93
2022-10-31T16:25:23.064Z,3.47
2022-10-31T16:27:54.564Z,2.83
2022-10-31T16:30:36.711Z,2.83
2022-10-31T16:33:04.429Z,9.57
2022-10-31T16:35:48.424Z,8.03
2022-10-31T16:38:22.063Z,7.50
2022-10-31T16:40:52.034Z,5.97
2022-10-31T16:43:21.300Z,5.17
2022-10-31T16:45:55.125Z,3.30
2022-10-31T16:48:31.255Z,2.70
2022-10-31T16:51:04.569Z,3.37
2022-10-31T16:53:36.061Z,4.70
2022-10-31T16:56:04.912Z,4.93
2022-10-31T16:58:43.009Z,4.80
2022-10-31T17:01:22.068Z,4.93
2022-10-31T17:03:55.455Z,4.37
2022-10-31T17:09:02.759Z,4.97
2022-10-31T17:11:29.481Z,5.47
2022-10-31T17:14:01.034Z,3.73
2022-10-31T17:17:21.031Z,4.00
2022-10-31T17:25:30.171Z,3.53
2022-10-31T17:28:01.670Z,3.70
2022-10-31T17:30:28.692Z,3.43
2022-10-31T17:33:00.968Z,3.47
2022-10-31T17:35:38.927Z,3.20
2022-10-31T17:38:05.684Z,3.10
2022-10-31T17:40:32.532Z,3.53
2022-10-31T17:43:06.436Z,3.80
2022-10-31T17:45:35.868Z,3.20
2022-10-31T17:48:06.521Z,3.47
2022-10-31T17:50:40.356Z,3.30
2022-10-31T17:53:07.103Z,3.27
2022-10-31T17:55:37.205Z,3.03
2022-10-31T18:00:54.951Z,3.60
2022-10-31T18:03:24.894Z,3.37
2022-10-31T18:06:43.707Z,3.17
2022-10-31T18:09:32.735Z,2.57
2022-10-31T18:12:00.201Z,2.83
2022-10-31T18:14:40.422Z,2.97
2022-10-31T18:17:14.775Z,2.73
2022-10-31T18:19:55.493Z,3.70
2022-10-31T18:22:23.880Z,4.57
2022-10-31T18:25:02.100Z,7.60
2022-10-31T18:27:29.433Z,5.03
2022-10-31T18:32:42.885Z,3.10
2022-10-31T18:35:17.534Z,3.23
2022-10-31T18:37:44.270Z,3.40
2022-10-31T18:40:18.328Z,3.30
2022-10-31T18:42:44.936Z,3.67
2022-10-31T18:45:31.280Z,2.90
2022-10-31T18:48:08.408Z,3.37
2022-10-31T18:50:41.268Z,3.60
2022-10-31T18:53:16.978Z,4.10
2022-10-31T18:55:47.267Z,3.93
2022-10-31T18:58:25.971Z,3.57
2022-10-31T19:00:52.884Z,4.20
2022-10-31T19:03:25.745Z,4.70
2022-10-31T19:05:57.802Z,4.57
2022-10-31T19:08:33.077Z,4.27
2022-10-31T19:11:15.452Z,6.33
2022-10-31T19:13:46.505Z,4.90
2022-10-31T19:16:17.205Z,5.03
2022-10-31T19:18:48.399Z,6.53
2022-10-31T19:21:27.878Z,4.70
2022-10-31T19:24:02.302Z,4.47
2022-10-31T19:26:38.518Z,4.90
2022-10-31T19:29:11.074Z,6.40
2022-10-31T19:31:37.826Z,5.50
2022-10-31T19:34:05.488Z,5.60
2022-10-31T19:36:43.373Z,6.33
2022-10-31T19:39:13.564Z,5.57
2022-10-31T19:41:54.202Z,5.40
2022-10-31T19:44:28.039Z,4.90
2022-10-31T19:46:54.653Z,5.47
2022-10-31T19:49:21.823Z,4.67
2022-10-31T19:51:48.438Z,5.30
2022-10-31T19:54:20.026Z,4.63
2022-10-31T19:56:46.735Z,4.93
2022-10-31T19:59:18.668Z,5.53
2022-10-31T20:01:46.172Z,4.53
2022-10-31T20:04:12.961Z,4.53
2022-10-31T20:06:43.765Z,4.53
2022-10-31T20:09:23.547Z,4.73
2022-10-31T20:14:32.205Z,4.03
2022-10-31T20:19:45.982Z,4.40
2022-10-31T20:22:17.847Z,4.80
2022-10-31T20:24:44.510Z,3.90
2022-10-31T20:27:18.026Z,4.00
2022-10-31T20:29:44.615Z,4.40
2022-10-31T20:32:11.269Z,3.90
2022-10-31T20:34:45.274Z,4.60
2022-10-31T20:37:11.973Z,4.97
2022-10-31T20:39:41.874Z,4.00
2022-10-31T20:42:19.427Z,4.77
2022-10-31T20:45:00.509Z,4.37
2022-10-31T20:47:40.689Z,4.60
2022-10-31T20:50:16.624Z,4.20
2022-10-31T20:53:01.297Z,4.20
2022-10-31T20:55:30.495Z,4.10
2022-10-31T20:57:57.666Z,5.10
2022-10-31T21:00:39.164Z,4.70
2022-10-31T21:03:07.286Z,4.17
2022-10-31T21:05:40.820Z,4.53
2022-10-31T21:08:13.000Z,4.97
2022-10-31T21:10:46.267Z,4.93
2022-10-31T21:13:12.898Z,4.43
2022-10-31T21:15:41.531Z,5.33
2022-10-31T21:18:10.939Z,4.83
2022-10-31T21:20:44.807Z,5.50
2022-10-31T21:23:13.808Z,5.70
2022-10-31T21:25:47.639Z,5.00
2022-10-31T21:28:25.478Z,4.80
2022-10-31T21:30:59.342Z,4.37
2022-10-31T21:36:07.417Z,4.83
2022-10-31T21:38:47.326Z,4.60
2022-10-31T21:44:06.313Z,4.00
2022-10-31T21:46:33.624Z,4.13
2022-10-31T21:51:49.816Z,4.10
2022-10-31T21:54:40.306Z,4.60
2022-10-31T21:57:11.476Z,5.37
2022-10-31T21:59:44.617Z,4.93
2022-10-31T22:02:21.033Z,5.07
2022-10-31T22:04:58.684Z,6.43
2022-10-31T22:07:25.329Z,5.40
2022-10-31T22:09:58.302Z,5.53
2022-10-31T22:12:24.962Z,4.67
2022-10-31T22:15:00.708Z,5.67
2022-10-31T22:17:33.747Z,5.07
2022-10-31T22:22:40.966Z,5.63
2022-10-31T22:25:17.683Z,6.27
2022-10-31T22:27:52.737Z,6.67
2022-10-31T22:30:19.787Z,5.63
2022-10-31T22:32:57.287Z,6.17
2022-10-31T22:35:25.106Z,5.70
2022-10-31T22:38:07.799Z,5.17
2022-10-31T22:40:36.462Z,6.30
2022-10-31T22:43:13.388Z,6.43
2022-10-31T22:45:46.907Z,7.50
2022-10-31T22:48:13.854Z,7.37
2022-10-31T22:50:48.308Z,6.67
2022-10-31T22:53:21.800Z,6.60
2022-10-31T22:55:52.766Z,5.67
2022-10-31T23:01:07.068Z,6.40
2022-10-31T23:03:35.118Z,6.23
2022-10-31T23:06:03.407Z,6.03
2022-10-31T23:08:31.570Z,5.60
2022-10-31T23:11:05.585Z,6.63
2022-10-31T23:13:56.485Z,5.77
2022-10-31T23:16:29.347Z,6.13
2022-10-31T23:18:59.309Z,6.10
2022-10-31T23:21:52.197Z,5.77
2022-10-31T23:24:22.652Z,6.40
2022-10-31T23:27:18.396Z,6.47
2022-10-31T23:29:49.981Z,5.60
2022-10-31T23:32:37.245Z,5.40
2022-10-31T23:35:09.894Z,5.13
2022-10-31T23:37:46.249Z,6.00
2022-10-31T23:40:19.633Z,5.23
2022-10-31T23:42:55.008Z,4.77
2022-10-31T23:45:23.653Z,5.60
2022-10-31T23:47:50.276Z,5.67
2022-10-31T23:50:23.154Z,4.87
2022-10-31T23:53:03.258Z,5.40
2022-10-31T23:55:31.373Z,5.07
2022-10-31T23:58:03.212Z,5.20
